Rockingham, Australia
Current Conditions -  °F | °C
As of 6:00 PM on Friday 24 Oct 2014 (Local Time) from YPJT Reporting Station
Clear Clear  
Wind Chill: 70°   Ceiling: Unl
Heat Index: 70°   Visibility: 6mi
Dew Point: 50°   Wind: 9mph
Humidity: 49%   Direction: 220°SW
Pressure: 29.97"   Gusts: NA
Location:  32.28°S, 115.73°E
Report Text: YPJT 241000Z AUTO 22008KT 9999 // NCD 21/10 Q1015
Loading
Personal Weather Stations






























Interactive Weather Map
Tropical Storm Tracking
New forecast layout! Learn more

10-Day Weather Forecast

Advertisements
Track Severe Weather on mobile